createdAt,value
2017-07-29T00:00:44.969Z,8.07
2017-07-29T00:03:11.768Z,10.60
2017-07-29T00:05:37.826Z,9.03
2017-07-29T00:08:03.896Z,8.60
2017-07-29T00:10:29.947Z,8.23
2017-07-29T00:12:56.008Z,9.93
2017-07-29T00:15:22.067Z,9.10
2017-07-29T00:17:48.114Z,8.40
2017-07-29T00:20:14.170Z,8.97
2017-07-29T00:22:40.209Z,7.50
2017-07-29T00:25:06.293Z,8.70
2017-07-29T00:27:32.346Z,9.07
2017-07-29T00:29:58.380Z,7.27
2017-07-29T00:32:24.439Z,7.70
2017-07-29T00:34:50.469Z,8.03
2017-07-29T00:37:16.505Z,7.67
2017-07-29T00:39:49.429Z,8.23
2017-07-29T00:42:15.465Z,7.37
2017-07-29T00:44:41.515Z,7.73
2017-07-29T00:47:08.299Z,7.80
2017-07-29T00:49:34.338Z,7.27
2017-07-29T00:52:00.381Z,7.50
2017-07-29T00:54:26.414Z,7.50
2017-07-29T00:56:52.466Z,7.77
2017-07-29T00:59:19.251Z,8.43
2017-07-29T01:01:45.301Z,6.97
2017-07-29T01:04:12.077Z,6.03
2017-07-29T01:06:45.200Z,6.30
2017-07-29T01:09:18.985Z,7.43
2017-07-29T01:11:45.033Z,7.67
2017-07-29T01:14:11.064Z,7.03
2017-07-29T01:16:37.112Z,6.97
2017-07-29T01:19:03.149Z,7.13
2017-07-29T01:21:29.956Z,7.90
2017-07-29T01:23:56.740Z,7.43
2017-07-29T01:26:22.757Z,7.87
2017-07-29T01:28:48.793Z,7.30
2017-07-29T01:31:14.812Z,7.37
2017-07-29T01:33:41.579Z,7.30
2017-07-29T01:36:08.033Z,7.73
2017-07-29T01:38:34.064Z,6.50
2017-07-29T01:41:00.839Z,6.97
2017-07-29T01:43:26.885Z,6.80
2017-07-29T01:45:52.905Z,8.20
2017-07-29T01:48:19.667Z,6.60
2017-07-29T01:50:45.686Z,7.10
2017-07-29T01:53:11.715Z,8.07
2017-07-29T01:55:37.755Z,7.10
2017-07-29T01:58:04.509Z,7.23
2017-07-29T02:00:30.528Z,8.03
2017-07-29T02:02:56.541Z,7.40
2017-07-29T02:05:22.569Z,7.70
2017-07-29T02:07:48.585Z,7.33
2017-07-29T02:10:14.633Z,6.93
2017-07-29T02:12:41.397Z,6.70
2017-07-29T02:15:07.421Z,6.60
2017-07-29T02:17:33.432Z,7.00
2017-07-29T02:19:59.493Z,5.60
2017-07-29T02:22:26.265Z,6.20
2017-07-29T02:24:52.296Z,9.10
2017-07-29T02:27:18.337Z,7.00
2017-07-29T02:29:44.365Z,6.13
2017-07-29T02:32:10.404Z,6.50
2017-07-29T02:34:36.433Z,5.93
2017-07-29T02:37:02.477Z,5.90
2017-07-29T02:39:28.501Z,7.30
2017-07-29T02:41:54.581Z,6.33
2017-07-29T02:44:21.341Z,6.17
2017-07-29T02:46:47.380Z,5.53
2017-07-29T02:49:13.421Z,7.10
2017-07-29T02:51:40.194Z,6.37
2017-07-29T02:54:06.238Z,5.37
2017-07-29T02:56:32.256Z,6.30
2017-07-29T02:58:58.281Z,5.93
2017-07-29T03:01:24.285Z,5.70
2017-07-29T03:03:50.342Z,5.70
2017-07-29T03:06:16.369Z,6.00
2017-07-29T03:08:42.396Z,6.27
2017-07-29T03:11:09.165Z,5.80
2017-07-29T03:13:35.211Z,5.30
2017-07-29T03:16:01.240Z,7.23
2017-07-29T03:18:27.281Z,7.13
2017-07-29T03:20:53.332Z,7.20
2017-07-29T03:23:19.353Z,6.77
2017-07-29T03:25:45.382Z,7.27
2017-07-29T03:28:12.168Z,6.80
2017-07-29T03:30:38.201Z,7.70
2017-07-29T03:33:04.244Z,7.13
2017-07-29T03:35:30.309Z,7.93
2017-07-29T03:37:56.345Z,6.20
2017-07-29T03:40:23.118Z,8.60
2017-07-29T03:42:49.140Z,7.60
2017-07-29T03:45:15.164Z,8.50
2017-07-29T03:47:41.221Z,8.57
2017-07-29T03:50:07.249Z,8.07
2017-07-29T03:52:33.278Z,8.97
2017-07-29T03:54:59.309Z,7.70
2017-07-29T03:57:25.444Z,8.83
2017-07-29T03:59:51.470Z,7.27
2017-07-29T04:02:17.501Z,8.60
2017-07-29T04:04:43.544Z,9.40
2017-07-29T04:07:10.328Z,6.80
2017-07-29T04:09:36.366Z,8.07
2017-07-29T04:12:02.400Z,8.67
2017-07-29T04:14:29.173Z,9.33
2017-07-29T04:16:55.230Z,9.20
2017-07-29T04:19:22.005Z,8.53
2017-07-29T04:21:48.061Z,8.73
2017-07-29T04:24:21.608Z,8.43
2017-07-29T04:26:47.631Z,7.83
2017-07-29T04:29:13.675Z,8.17
2017-07-29T04:31:39.700Z,8.83
2017-07-29T04:34:12.757Z,10.00
2017-07-29T04:36:39.506Z,7.73
2017-07-29T04:39:05.516Z,7.50
2017-07-29T04:41:31.532Z,7.73
2017-07-29T04:43:57.542Z,8.53
2017-07-29T04:46:23.576Z,9.07
2017-07-29T04:48:49.589Z,10.17
2017-07-29T04:51:15.617Z,9.47
2017-07-29T04:53:41.638Z,9.67
2017-07-29T04:56:07.692Z,9.00
2017-07-29T04:58:33.715Z,9.83
2017-07-29T05:00:59.770Z,10.07
2017-07-29T05:03:25.802Z,9.10
2017-07-29T05:05:51.813Z,10.40
2017-07-29T05:08:17.828Z,10.13
2017-07-29T05:10:43.832Z,9.57
2017-07-29T05:13:09.855Z,10.13
2017-07-29T05:15:35.861Z,9.57
2017-07-29T05:18:01.901Z,11.67
2017-07-29T05:20:27.928Z,9.37
2017-07-29T05:22:54.689Z,9.87
2017-07-29T05:25:20.707Z,9.20
2017-07-29T05:27:46.733Z,8.83
2017-07-29T05:30:12.750Z,9.47
2017-07-29T05:32:38.779Z,10.00
2017-07-29T05:35:04.793Z,9.97
2017-07-29T05:37:30.806Z,9.37
2017-07-29T05:39:56.861Z,10.13
2017-07-29T05:42:22.878Z,9.90
2017-07-29T05:44:48.935Z,8.90
2017-07-29T05:47:15.695Z,9.20
2017-07-29T05:49:41.708Z,10.87
2017-07-29T05:52:07.745Z,10.10
2017-07-29T05:54:33.792Z,10.33
2017-07-29T05:57:00.543Z,8.70
2017-07-29T05:59:26.551Z,8.57
2017-07-29T06:01:52.586Z,9.37
2017-07-29T06:04:18.632Z,10.00
2017-07-29T06:06:44.648Z,9.63
2017-07-29T06:09:10.656Z,9.60
2017-07-29T06:11:36.668Z,8.90
2017-07-29T06:14:02.677Z,9.60
2017-07-29T06:16:28.714Z,9.47
2017-07-29T06:18:54.720Z,9.20
2017-07-29T06:21:20.740Z,9.60
2017-07-29T06:23:46.764Z,10.40
2017-07-29T06:26:12.777Z,13.20
2017-07-29T06:28:38.796Z,9.27
2017-07-29T06:31:04.827Z,9.07
2017-07-29T06:33:31.581Z,9.50
2017-07-29T06:35:57.579Z,10.47
2017-07-29T06:38:23.597Z,9.70
2017-07-29T06:40:49.620Z,10.97
2017-07-29T06:43:15.645Z,10.10
2017-07-29T06:45:41.657Z,9.33
2017-07-29T06:48:07.661Z,9.53
2017-07-29T06:50:33.676Z,8.73
2017-07-29T06:52:59.700Z,9.27
2017-07-29T06:55:25.761Z,8.40
2017-07-29T06:57:51.823Z,9.40
2017-07-29T07:00:18.608Z,9.37
2017-07-29T07:02:44.697Z,10.43
2017-07-29T07:05:10.730Z,8.47
2017-07-29T07:07:38.136Z,9.00
2017-07-29T07:10:04.156Z,8.30
2017-07-29T07:12:30.168Z,6.90
2017-07-29T07:14:56.172Z,8.03
2017-07-29T07:17:22.204Z,7.60
2017-07-29T07:19:48.240Z,8.33
2017-07-29T07:22:14.271Z,9.10
2017-07-29T07:24:41.061Z,9.30
2017-07-29T07:27:07.089Z,7.50
2017-07-29T07:29:33.117Z,8.20
2017-07-29T07:31:59.881Z,9.23
2017-07-29T07:34:25.900Z,8.60
2017-07-29T07:36:51.996Z,8.20
2017-07-29T07:39:18.033Z,8.43
2017-07-29T07:41:44.117Z,8.60
2017-07-29T07:44:10.164Z,10.00
2017-07-29T07:46:36.244Z,9.37
2017-07-29T07:49:02.297Z,9.00
2017-07-29T07:51:28.343Z,9.97
2017-07-29T07:53:54.388Z,8.80
2017-07-29T07:56:20.421Z,9.30
2017-07-29T07:58:47.209Z,6.30
2017-07-29T08:01:13.226Z,7.20
2017-07-29T08:03:39.253Z,6.90
2017-07-29T08:06:05.285Z,7.70
2017-07-29T08:08:31.328Z,8.40
2017-07-29T08:10:57.353Z,8.30
2017-07-29T08:13:23.376Z,7.10
2017-07-29T08:15:49.426Z,10.20
2017-07-29T08:18:15.497Z,8.27
2017-07-29T08:20:41.539Z,9.10
2017-07-29T08:23:08.281Z,8.80
2017-07-29T08:25:34.305Z,9.87
2017-07-29T08:28:00.325Z,8.90
2017-07-29T08:30:26.349Z,9.30
2017-07-29T08:32:52.371Z,9.13
2017-07-29T08:35:19.135Z,9.00
2017-07-29T08:37:45.152Z,10.23
2017-07-29T08:40:11.170Z,10.67
2017-07-29T08:42:37.225Z,10.60
2017-07-29T08:45:03.289Z,5.63
2017-07-29T08:47:29.313Z,10.80
2017-07-29T08:49:55.353Z,9.93
2017-07-29T08:52:21.417Z,9.70
2017-07-29T08:54:47.469Z,9.40
2017-07-29T08:57:13.583Z,10.03
2017-07-29T08:59:39.644Z,8.13
2017-07-29T09:02:05.733Z,9.73
2017-07-29T09:04:31.777Z,9.40
2017-07-29T09:06:57.810Z,11.53
2017-07-29T09:09:23.828Z,11.50
2017-07-29T09:11:49.853Z,10.50
2017-07-29T09:14:16.610Z,10.10
2017-07-29T09:16:42.649Z,11.17
2017-07-29T09:19:08.684Z,10.20
2017-07-29T09:21:34.708Z,10.57
2017-07-29T09:24:01.478Z,10.20
2017-07-29T09:26:27.512Z,9.00
2017-07-29T09:28:53.561Z,9.17
2017-07-29T09:31:19.594Z,9.70
2017-07-29T09:33:45.633Z,11.07
2017-07-29T09:36:12.425Z,10.10
2017-07-29T09:38:38.482Z,9.20
2017-07-29T09:41:04.550Z,8.77
2017-07-29T09:43:30.585Z,10.57
2017-07-29T09:45:56.620Z,7.93
2017-07-29T09:48:23.397Z,9.50
2017-07-29T09:50:49.445Z,9.50
2017-07-29T09:53:16.217Z,10.87
2017-07-29T09:55:42.269Z,10.30
2017-07-29T09:58:08.307Z,10.73
2017-07-29T10:00:34.417Z,8.23
2017-07-29T10:03:00.517Z,8.47
2017-07-29T10:05:27.280Z,10.20
2017-07-29T10:07:53.308Z,9.57
2017-07-29T10:10:19.349Z,9.50
2017-07-29T10:12:46.139Z,8.97
2017-07-29T10:15:12.180Z,8.97
2017-07-29T10:17:38.220Z,9.00
2017-07-29T10:20:04.955Z,9.37
2017-07-29T10:22:31.025Z,8.50
2017-07-29T10:24:57.054Z,9.63
2017-07-29T10:27:23.832Z,10.33
2017-07-29T10:29:49.868Z,9.33
2017-07-29T10:32:15.906Z,7.67
2017-07-29T10:34:41.952Z,9.43
2017-07-29T10:37:07.989Z,10.47
2017-07-29T10:39:41.000Z,8.93
2017-07-29T10:42:07.025Z,8.83
2017-07-29T10:44:33.057Z,8.20
2017-07-29T10:46:59.092Z,9.63
2017-07-29T10:49:25.140Z,8.70
2017-07-29T10:51:51.181Z,9.80
2017-07-29T10:54:17.213Z,10.97
2017-07-29T10:56:43.239Z,9.87
2017-07-29T10:59:09.317Z,9.33
2017-07-29T11:01:35.345Z,7.47
2017-07-29T11:04:01.383Z,9.40
2017-07-29T11:06:27.416Z,9.90
2017-07-29T11:08:53.536Z,9.37
2017-07-29T11:11:19.568Z,10.77
2017-07-29T11:13:45.601Z,9.70
2017-07-29T11:16:11.665Z,9.30
2017-07-29T11:18:37.761Z,6.73
2017-07-29T11:21:03.838Z,9.20
2017-07-29T11:23:30.612Z,8.80
2017-07-29T11:25:56.648Z,9.10
2017-07-29T11:28:22.686Z,9.63
2017-07-29T11:30:48.749Z,9.27
2017-07-29T11:33:15.374Z,9.90
2017-07-29T11:35:42.079Z,9.23
2017-07-29T11:38:08.716Z,8.07
2017-07-29T11:40:34.761Z,9.33
2017-07-29T11:43:01.575Z,8.73
2017-07-29T11:45:27.597Z,10.50
2017-07-29T11:47:54.376Z,9.03
2017-07-29T11:50:20.418Z,9.03
2017-07-29T11:52:46.441Z,9.00
2017-07-29T11:55:12.465Z,8.60
2017-07-29T11:57:38.487Z,9.77
2017-07-29T12:00:04.528Z,9.50
2017-07-29T12:02:30.553Z,7.60
2017-07-29T12:04:56.584Z,8.47
2017-07-29T12:07:23.374Z,8.20
2017-07-29T12:09:49.425Z,7.87
2017-07-29T12:12:15.465Z,8.93
2017-07-29T12:14:43.285Z,7.47
2017-07-29T12:17:11.094Z,6.57
2017-07-29T12:19:38.892Z,7.23
2017-07-29T12:22:06.681Z,6.80
2017-07-29T12:24:34.472Z,5.90
2017-07-29T12:27:02.260Z,7.80
2017-07-29T12:29:30.056Z,9.40
2017-07-29T12:31:57.868Z,9.50
2017-07-29T12:34:25.661Z,9.50
2017-07-29T12:36:53.449Z,11.63
2017-07-29T12:39:21.237Z,11.30
2017-07-29T12:41:49.042Z,12.60
2017-07-29T12:44:16.841Z,13.57
2017-07-29T12:46:44.630Z,17.60
2017-07-29T12:49:12.420Z,17.37
2017-07-29T12:51:40.208Z,14.50
2017-07-29T12:54:07.992Z,14.10
2017-07-29T12:56:35.806Z,12.87
2017-07-29T12:59:04.432Z,12.37
2017-07-29T13:01:32.283Z,13.50
2017-07-29T13:04:00.067Z,12.70
2017-07-29T13:06:27.868Z,14.97
2017-07-29T13:08:55.678Z,11.60
2017-07-29T13:11:23.458Z,13.57
2017-07-29T13:13:51.275Z,11.27
2017-07-29T13:16:19.075Z,10.47
2017-07-29T13:18:46.949Z,11.80
2017-07-29T13:21:14.759Z,10.40
2017-07-29T13:23:42.575Z,7.67
2017-07-29T13:26:10.393Z,9.90
2017-07-29T13:28:38.260Z,8.93
2017-07-29T13:31:06.086Z,10.07
2017-07-29T13:33:33.967Z,9.53
2017-07-29T13:36:01.780Z,7.10
2017-07-29T13:38:28.562Z,8.50
2017-07-29T13:40:54.596Z,8.20
2017-07-29T13:43:20.620Z,6.60
2017-07-29T13:45:46.669Z,7.53
2017-07-29T13:48:12.704Z,5.40
2017-07-29T13:50:39.489Z,5.17
2017-07-29T13:53:05.505Z,5.63
2017-07-29T13:55:31.549Z,5.73
2017-07-29T13:57:58.325Z,4.97
2017-07-29T14:00:24.379Z,5.30
2017-07-29T14:02:50.420Z,5.30
2017-07-29T14:05:16.453Z,4.10
2017-07-29T14:07:42.505Z,4.57
2017-07-29T14:10:09.283Z,3.73
2017-07-29T14:12:35.329Z,5.00
2017-07-29T14:15:01.356Z,3.20
2017-07-29T14:17:28.127Z,2.87
2017-07-29T14:19:54.181Z,3.60
2017-07-29T14:22:20.957Z,3.63
2017-07-29T14:24:46.996Z,3.50
2017-07-29T14:27:13.016Z,4.47
2017-07-29T14:29:39.041Z,3.87
2017-07-29T14:32:05.061Z,2.47
2017-07-29T14:34:31.093Z,3.30
2017-07-29T14:36:57.115Z,2.93
2017-07-29T14:39:23.176Z,2.97
2017-07-29T14:41:49.197Z,3.07
2017-07-29T14:44:15.236Z,5.13
2017-07-29T14:46:41.290Z,3.40
2017-07-29T14:49:07.330Z,3.23
2017-07-29T14:51:33.363Z,3.27
2017-07-29T14:53:59.386Z,2.50
2017-07-29T14:56:25.421Z,2.50
2017-07-29T14:58:51.464Z,2.40
2017-07-29T15:01:19.285Z,2.00
2017-07-29T15:03:47.068Z,2.00
2017-07-29T15:06:14.905Z,1.90
2017-07-29T15:08:42.711Z,2.10
2017-07-29T15:11:10.512Z,2.20
2017-07-29T15:13:38.320Z,1.80
2017-07-29T15:16:04.357Z,2.27
2017-07-29T15:18:30.395Z,2.07
2017-07-29T15:20:56.441Z,1.80
2017-07-29T15:23:22.464Z,1.97
2017-07-29T15:25:50.276Z,2.00
2017-07-29T15:28:18.080Z,2.00
2017-07-29T15:30:44.866Z,2.77
2017-07-29T15:33:10.931Z,2.60
2017-07-29T15:35:36.993Z,2.00
2017-07-29T15:38:03.090Z,2.00
2017-07-29T15:40:29.135Z,1.70
2017-07-29T15:42:55.188Z,2.30
2017-07-29T15:45:21.241Z,1.70
2017-07-29T15:47:47.327Z,1.80
2017-07-29T15:50:13.361Z,2.57
2017-07-29T15:52:39.393Z,2.50
2017-07-29T15:55:06.180Z,3.53
2017-07-29T15:57:32.234Z,1.77
2017-07-29T15:59:58.997Z,2.37
2017-07-29T16:02:25.021Z,2.70
2017-07-29T16:04:51.048Z,2.17
2017-07-29T16:07:17.129Z,1.70
2017-07-29T16:09:43.173Z,2.00
2017-07-29T16:12:09.209Z,1.90
2017-07-29T16:14:35.989Z,2.50
2017-07-29T16:17:02.016Z,2.17
2017-07-29T16:19:28.029Z,2.40
2017-07-29T16:21:54.049Z,2.30
2017-07-29T16:24:20.818Z,2.70
2017-07-29T16:26:46.885Z,2.37
2017-07-29T16:29:13.624Z,2.57
2017-07-29T16:31:39.648Z,1.97
2017-07-29T16:34:05.661Z,2.70
2017-07-29T16:36:31.700Z,2.23
2017-07-29T16:38:57.720Z,2.50
2017-07-29T16:41:23.745Z,2.87
2017-07-29T16:43:50.508Z,2.37
2017-07-29T16:46:16.516Z,3.43
2017-07-29T16:48:42.532Z,3.50
2017-07-29T16:51:08.531Z,2.80
2017-07-29T16:53:34.556Z,3.40
2017-07-29T16:56:00.564Z,3.27
2017-07-29T16:58:26.605Z,3.53
2017-07-29T17:00:52.612Z,3.20
2017-07-29T17:03:18.632Z,2.77
2017-07-29T17:05:45.397Z,3.60
2017-07-29T17:08:11.400Z,3.83
2017-07-29T17:10:37.440Z,3.73
2017-07-29T17:13:03.471Z,4.80
2017-07-29T17:15:29.537Z,4.00
2017-07-29T17:17:55.561Z,4.97
2017-07-29T17:20:21.713Z,5.27
2017-07-29T17:22:48.548Z,5.37
2017-07-29T17:25:14.618Z,5.40
2017-07-29T17:27:40.648Z,6.93
2017-07-29T17:30:06.681Z,6.10
2017-07-29T17:32:33.464Z,7.30
2017-07-29T17:34:59.501Z,7.43
2017-07-29T17:37:26.271Z,7.80
2017-07-29T17:39:52.286Z,8.33
2017-07-29T17:42:18.333Z,8.83
2017-07-29T17:44:44.357Z,10.27
2017-07-29T17:47:10.396Z,8.60
2017-07-29T17:49:36.405Z,8.60
2017-07-29T17:52:02.432Z,9.97
2017-07-29T17:54:28.482Z,10.30
2017-07-29T17:56:54.506Z,8.50
2017-07-29T17:59:20.548Z,8.97
2017-07-29T18:01:46.576Z,9.17
2017-07-29T18:04:12.614Z,9.37
2017-07-29T18:06:38.639Z,7.60
2017-07-29T18:09:05.408Z,8.50
2017-07-29T18:11:31.428Z,7.40
2017-07-29T18:13:57.460Z,4.87
2017-07-29T18:16:23.480Z,5.80
2017-07-29T18:18:49.509Z,5.90
2017-07-29T18:21:15.550Z,5.50
2017-07-29T18:23:41.640Z,6.23
2017-07-29T18:26:07.681Z,6.50
2017-07-29T18:28:33.728Z,7.10
2017-07-29T18:31:00.497Z,6.07
2017-07-29T18:33:26.520Z,5.40
2017-07-29T18:35:52.557Z,5.07
2017-07-29T18:38:19.448Z,5.97
2017-07-29T18:40:45.489Z,6.00
2017-07-29T18:43:11.536Z,6.40
2017-07-29T18:45:37.588Z,6.33
2017-07-29T18:48:03.626Z,6.60
2017-07-29T18:50:29.661Z,6.07
2017-07-29T18:52:55.697Z,5.17
2017-07-29T18:55:21.756Z,6.23
2017-07-29T18:57:47.788Z,5.47
2017-07-29T19:00:13.831Z,5.50
2017-07-29T19:02:39.878Z,4.10
2017-07-29T19:05:05.897Z,8.67
2017-07-29T19:07:31.956Z,5.90
2017-07-29T19:09:57.988Z,5.83
2017-07-29T19:12:24.017Z,4.17
2017-07-29T19:15:05.020Z,4.17
2017-07-29T19:17:31.058Z,4.90
2017-07-29T19:19:57.088Z,4.80
2017-07-29T19:22:23.872Z,4.53
2017-07-29T19:24:49.908Z,4.60
2017-07-29T19:27:15.928Z,5.10
2017-07-29T19:29:41.975Z,4.27
2017-07-29T19:32:08.020Z,4.63
2017-07-29T19:34:34.058Z,5.20
2017-07-29T19:37:00.184Z,4.80
2017-07-29T19:39:27.990Z,4.37
2017-07-29T19:41:55.785Z,4.13
2017-07-29T19:44:23.620Z,5.40
2017-07-29T19:46:53.407Z,4.73
2017-07-29T19:49:21.286Z,4.43
2017-07-29T19:51:49.101Z,5.57
2017-07-29T19:54:16.917Z,5.37
2017-07-29T19:56:44.791Z,5.73
2017-07-29T19:59:12.595Z,5.33
2017-07-29T20:01:40.392Z,5.20
2017-07-29T20:04:08.201Z,4.60
2017-07-29T20:06:36.009Z,4.47
2017-07-29T20:09:10.871Z,5.07
2017-07-29T20:11:38.677Z,5.03
2017-07-29T20:14:06.481Z,4.80
2017-07-29T20:16:34.314Z,4.50
2017-07-29T20:19:02.115Z,4.70
2017-07-29T20:21:29.925Z,5.50
2017-07-29T20:23:57.736Z,5.13
2017-07-29T20:26:25.533Z,5.50
2017-07-29T20:28:53.364Z,5.70
2017-07-29T20:31:21.167Z,5.07
2017-07-29T20:33:48.970Z,4.67
2017-07-29T20:36:16.768Z,4.43
2017-07-29T20:38:44.595Z,4.40
2017-07-29T20:41:12.385Z,3.77
2017-07-29T20:43:40.188Z,5.37
2017-07-29T20:46:08.009Z,5.20
2017-07-29T20:48:35.817Z,5.17
2017-07-29T20:51:03.632Z,4.47
2017-07-29T20:53:31.441Z,4.97
2017-07-29T20:55:59.248Z,5.80
2017-07-29T20:58:27.055Z,5.70
2017-07-29T21:00:54.863Z,7.60
2017-07-29T21:03:22.659Z,8.40
2017-07-29T21:05:50.476Z,8.30
2017-07-29T21:08:18.283Z,7.33
2017-07-29T21:10:46.080Z,9.10
2017-07-29T21:13:13.881Z,10.50
2017-07-29T21:15:41.684Z,10.27
2017-07-29T21:18:11.669Z,9.80
2017-07-29T21:20:39.476Z,8.63
2017-07-29T21:23:07.279Z,8.80
2017-07-29T21:25:35.071Z,9.30
2017-07-29T21:28:02.869Z,9.93
2017-07-29T21:30:30.726Z,9.43
2017-07-29T21:32:58.513Z,10.13
2017-07-29T21:35:26.312Z,9.50
2017-07-29T21:37:54.116Z,9.57
2017-07-29T21:40:21.925Z,9.33
2017-07-29T21:42:49.712Z,9.17
2017-07-29T21:45:17.510Z,8.77
2017-07-29T21:47:45.309Z,9.60
2017-07-29T21:50:13.100Z,9.73
2017-07-29T21:52:40.888Z,9.47
2017-07-29T21:55:08.696Z,9.03
2017-07-29T21:57:36.493Z,8.93
2017-07-29T22:00:04.300Z,10.00
2017-07-29T22:02:32.100Z,9.30
2017-07-29T22:04:59.884Z,9.50
2017-07-29T22:07:27.695Z,9.30
2017-07-29T22:09:55.500Z,8.43
2017-07-29T22:12:23.298Z,9.77
2017-07-29T22:14:51.090Z,9.37
2017-07-29T22:17:18.893Z,9.83
2017-07-29T22:19:46.692Z,9.40
2017-07-29T22:22:14.507Z,9.20
2017-07-29T22:24:42.308Z,8.30
2017-07-29T22:27:10.121Z,9.60
2017-07-29T22:29:37.937Z,8.90
2017-07-29T22:32:05.745Z,9.27
2017-07-29T22:34:33.569Z,9.80
2017-07-29T22:37:01.392Z,9.20
2017-07-29T22:39:29.199Z,9.40
2017-07-29T22:41:57.007Z,9.90
2017-07-29T22:44:39.781Z,9.57
2017-07-29T22:47:07.572Z,9.17
2017-07-29T22:49:35.376Z,11.93
2017-07-29T22:52:03.180Z,10.97
2017-07-29T22:54:30.983Z,11.93
2017-07-29T22:56:58.886Z,12.47
2017-07-29T22:59:26.715Z,12.53
2017-07-29T23:01:54.541Z,10.90
2017-07-29T23:04:22.352Z,12.83
2017-07-29T23:06:50.152Z,11.73
2017-07-29T23:09:17.968Z,11.27
2017-07-29T23:11:45.773Z,11.53
2017-07-29T23:14:13.592Z,11.23
2017-07-29T23:16:41.395Z,11.27
2017-07-29T23:19:09.197Z,12.23
2017-07-29T23:21:37.032Z,11.03
2017-07-29T23:24:04.840Z,11.67
2017-07-29T23:26:32.646Z,11.83
2017-07-29T23:29:00.457Z,11.00
2017-07-29T23:31:28.264Z,12.27
2017-07-29T23:33:56.059Z,11.93
2017-07-29T23:36:23.855Z,10.70
2017-07-29T23:38:51.660Z,12.07
2017-07-29T23:41:19.464Z,11.30
2017-07-29T23:43:47.273Z,13.03
2017-07-29T23:46:15.067Z,11.27
2017-07-29T23:48:43.752Z,11.27
2017-07-29T23:51:11.560Z,12.57
2017-07-29T23:53:39.394Z,11.63
2017-07-29T23:56:07.192Z,10.93
2017-07-29T23:58:34.984Z,10.47
